Time;durP1;ratioP1;P1;durP2;ratioP2;P2;SDS_P1;SDS_P2;PMS_P1;PMS_P2;Temp;Humidity;BMP_temperature;BMP_pressure;BME280_temperature;BME280_humidity;BME280_pressure;Samples;Min_cycle;Max_cycle;Signal;HPM_P1;HPM_P2
2022/03/10 00:01:19;;;;;;;17.27;7.17;;;;;;;;;;5091518;28;20504;-71
2022/03/10 00:03:44;;;;;;;19.07;7.77;;;;;;;;;;5086453;28;20085;-71
2022/03/10 00:06:10;;;;;;;19.33;7.43;;;;;;;;;;5094597;28;20028;-72
2022/03/10 00:08:35;;;;;;;16.20;7.40;;;;;;;;;;5092049;28;20380;-72
2022/03/10 00:11:00;;;;;;;20.53;7.60;;;;;;;;;;5092815;28;20051;-72
2022/03/10 00:13:29;;;;;;;19.83;8.57;;;;;;;;;;5092796;28;20023;-71
2022/03/10 00:15:55;;;;;;;17.70;7.63;;;;;;;;;;5091322;28;20481;-72
2022/03/10 00:18:20;;;;;;;15.73;6.97;;;;;;;;;;5094924;28;20907;-71
2022/03/10 00:20:45;;;;;;;16.70;6.60;;;;;;;;;;5091960;28;20039;-71
2022/03/10 00:23:10;;;;;;;15.70;6.97;;;;;;;;;;5090419;28;20046;-71
2022/03/10 00:25:36;;;;;;;21.17;7.60;;;;;;;;;;5095561;28;20042;-71
2022/03/10 00:28:01;;;;;;;16.47;7.13;;;;;;;;;;5089220;28;20629;-71
2022/03/10 00:30:26;;;;;;;18.20;6.77;;;;;;;;;;5084254;28;20468;-71
2022/03/10 00:32:52;;;;;;;16.47;6.57;;;;;;;;;;5099745;28;20047;-71
2022/03/10 00:35:19;;;;;;;14.67;6.03;;;;;;;;;;5086045;28;20042;-71
2022/03/10 00:37:45;;;;;;;14.53;5.93;;;;;;;;;;5085350;28;20012;-71
2022/03/10 00:40:11;;;;;;;16.17;7.33;;;;;;;;;;5083599;28;20084;-72
2022/03/10 00:42:39;;;;;;;14.37;6.13;;;;;;;;;;5091894;28;20031;-72
2022/03/10 00:45:05;;;;;;;13.90;6.33;;;;;;;;;;5082497;28;20024;-71
2022/03/10 00:47:31;;;;;;;14.37;5.70;;;;;;;;;;5091473;28;20034;-72
2022/03/10 00:49:56;;;;;;;13.57;6.40;;;;;;;;;;5082768;28;20030;-71
2022/03/10 00:52:21;;;;;;;17.37;7.20;;;;;;;;;;5082989;28;20046;-71
2022/03/10 00:54:47;;;;;;;12.97;6.53;;;;;;;;;;5082138;28;20054;-71
2022/03/10 00:57:12;;;;;;;16.90;6.53;;;;;;;;;;5083456;28;20031;-71
2022/03/10 00:59:37;;;;;;;17.07;5.93;;;;;;;;;;5083976;28;20016;-71
2022/03/10 01:02:02;;;;;;;12.87;5.70;;;;;;;;;;5084816;28;20063;-71
2022/03/10 01:04:27;;;;;;;22.00;7.27;;;;;;;;;;5085233;28;20023;-71
2022/03/10 01:06:53;;;;;;;16.50;6.53;;;;;;;;;;5082738;28;20081;-72
2022/03/10 01:09:18;;;;;;;15.80;6.77;;;;;;;;;;5082004;28;20036;-71
2022/03/10 01:11:43;;;;;;;15.93;6.33;;;;;;;;;;5076526;28;20021;-71
2022/03/10 01:14:08;;;;;;;16.87;6.17;;;;;;;;;;5075894;28;20062;-71
2022/03/10 01:16:34;;;;;;;14.90;6.63;;;;;;;;;;5082546;28;20825;-71
2022/03/10 01:18:59;;;;;;;13.97;6.60;;;;;;;;;;5081734;28;20757;-71
2022/03/10 01:21:24;;;;;;;15.27;5.57;;;;;;;;;;5081569;28;20024;-71
2022/03/10 01:23:49;;;;;;;14.90;6.30;;;;;;;;;;5081806;28;20032;-71
2022/03/10 01:26:15;;;;;;;12.60;5.30;;;;;;;;;;5081734;28;20028;-71
2022/03/10 01:28:40;;;;;;;13.03;6.17;;;;;;;;;;5080580;28;20040;-71
2022/03/10 01:31:05;;;;;;;14.37;5.60;;;;;;;;;;5081934;28;20034;-71
2022/03/10 01:33:30;;;;;;;14.57;6.03;;;;;;;;;;5081632;28;20154;-71
2022/03/10 01:35:56;;;;;;;14.00;5.53;;;;;;;;;;5081307;28;20026;-71
2022/03/10 01:38:21;;;;;;;14.60;6.97;;;;;;;;;;5080630;28;20032;-71
2022/03/10 01:40:46;;;;;;;14.97;6.40;;;;;;;;;;5082347;28;20062;-71
2022/03/10 01:43:11;;;;;;;14.23;6.37;;;;;;;;;;5081932;28;20042;-71
2022/03/10 01:45:37;;;;;;;17.33;6.60;;;;;;;;;;5080337;28;20019;-71
2022/03/10 01:48:02;;;;;;;15.80;6.77;;;;;;;;;;5080823;28;20917;-71
2022/03/10 01:50:27;;;;;;;15.33;7.37;;;;;;;;;;5082011;28;20058;-71
2022/03/10 01:52:53;;;;;;;13.60;6.30;;;;;;;;;;5080648;28;20445;-71
2022/03/10 01:55:19;;;;;;;14.63;5.90;;;;;;;;;;5081204;28;20039;-71
2022/03/10 01:57:45;;;;;;;18.27;8.03;;;;;;;;;;5081384;28;20016;-71
2022/03/10 02:00:11;;;;;;;18.27;7.90;;;;;;;;;;5081606;28;20016;-71
2022/03/10 02:02:36;;;;;;;15.27;6.90;;;;;;;;;;5081767;28;20073;-71
2022/03/10 02:05:01;;;;;;;23.83;8.43;;;;;;;;;;5090168;28;20031;-71
2022/03/10 02:10:17;;;;;;;17.87;7.37;;;;;;;;;;5083763;28;20093;-71
2022/03/10 02:12:43;;;;;;;17.90;7.85;;;;;;;;;;5083633;28;20032;-71
2022/03/10 02:17:55;;;;;;;17.27;7.03;;;;;;;;;;5083498;28;20053;-71
2022/03/10 02:20:20;;;;;;;15.93;7.23;;;;;;;;;;5082495;28;20056;-71
2022/03/10 02:22:46;;;;;;;17.13;6.73;;;;;;;;;;5075427;28;20416;-71
2022/03/10 02:25:13;;;;;;;15.93;6.80;;;;;;;;;;5082919;28;20486;-71
2022/03/10 02:27:38;;;;;;;16.57;7.93;;;;;;;;;;5082524;28;20024;-71
2022/03/10 02:30:04;;;;;;;16.80;7.10;;;;;;;;;;5084979;28;20111;-72
2022/03/10 02:32:29;;;;;;;19.33;8.07;;;;;;;;;;5086842;28;20020;-71
2022/03/10 02:34:54;;;;;;;19.07;7.10;;;;;;;;;;5086155;28;20020;-72
2022/03/10 02:37:20;;;;;;;19.47;7.77;;;;;;;;;;5085529;28;20049;-71
2022/03/10 02:39:45;;;;;;;20.07;8.43;;;;;;;;;;5085896;28;20020;-71
2022/03/10 02:42:12;;;;;;;14.80;6.80;;;;;;;;;;5086329;28;20028;-71
2022/03/10 02:44:45;;;;;;;17.03;6.90;;;;;;;;;;5085324;28;20401;-71
2022/03/10 02:47:10;;;;;;;16.80;7.50;;;;;;;;;;5071732;28;20044;-71
2022/03/10 02:49:36;;;;;;;14.53;6.27;;;;;;;;;;5085171;28;20462;-72
2022/03/10 02:52:03;;;;;;;16.20;7.17;;;;;;;;;;5084727;28;20124;-71
2022/03/10 02:54:28;;;;;;;17.17;6.10;;;;;;;;;;5084294;28;20501;-71
2022/03/10 02:56:53;;;;;;;21.53;6.77;;;;;;;;;;5084541;28;20052;-72
2022/03/10 02:59:19;;;;;;;17.27;7.07;;;;;;;;;;5084285;28;20036;-72
2022/03/10 03:01:44;;;;;;;16.17;6.50;;;;;;;;;;5083955;28;20099;-72
2022/03/10 03:04:09;;;;;;;13.60;6.67;;;;;;;;;;5084990;28;20102;-71
2022/03/10 03:06:34;;;;;;;17.37;6.83;;;;;;;;;;5092275;28;20028;-72
2022/03/10 03:09:00;;;;;;;15.23;6.60;;;;;;;;;;5083511;28;20067;-71
2022/03/10 03:11:25;;;;;;;14.50;6.03;;;;;;;;;;5084708;28;20458;-71
2022/03/10 03:13:51;;;;;;;17.43;7.23;;;;;;;;;;5084175;28;20460;-71
2022/03/10 03:16:16;;;;;;;18.50;7.57;;;;;;;;;;5084313;28;20020;-71
2022/03/10 03:18:41;;;;;;;16.60;7.07;;;;;;;;;;5083371;28;20080;-71
2022/03/10 03:21:06;;;;;;;15.27;7.17;;;;;;;;;;5080325;28;20027;-72
2022/03/10 03:23:31;;;;;;;16.03;7.23;;;;;;;;;;5079030;28;20043;-71
2022/03/10 03:25:57;;;;;;;15.37;7.37;;;;;;;;;;5083913;28;20054;-72
2022/03/10 03:28:22;;;;;;;13.47;6.63;;;;;;;;;;5083288;28;20052;-71
2022/03/10 03:30:48;;;;;;;16.03;6.30;;;;;;;;;;5084041;28;20036;-71
2022/03/10 03:33:13;;;;;;;14.90;6.43;;;;;;;;;;5083569;28;20507;-71
2022/03/10 03:35:38;;;;;;;30.17;6.93;;;;;;;;;;5083796;28;20028;-71
2022/03/10 03:38:04;;;;;;;14.13;5.97;;;;;;;;;;5084147;28;20035;-71
2022/03/10 03:40:29;;;;;;;14.70;7.00;;;;;;;;;;5083461;28;20024;-71
2022/03/10 03:42:54;;;;;;;14.43;5.93;;;;;;;;;;5084170;28;20514;-71
2022/03/10 03:45:19;;;;;;;16.17;7.00;;;;;;;;;;5084409;28;20108;-71
2022/03/10 03:47:45;;;;;;;15.57;7.13;;;;;;;;;;5084039;28;20102;-71
2022/03/10 03:50:11;;;;;;;15.23;6.27;;;;;;;;;;5085066;28;20031;-71
2022/03/10 03:52:37;;;;;;;15.20;6.37;;;;;;;;;;5084604;28;20024;-71
2022/03/10 03:55:02;;;;;;;17.80;7.60;;;;;;;;;;5084147;28;20073;-72
2022/03/10 03:57:27;;;;;;;16.33;7.07;;;;;;;;;;5085229;28;20028;-71
2022/03/10 03:59:52;;;;;;;15.33;6.30;;;;;;;;;;5083201;28;20476;-71
2022/03/10 04:02:18;;;;;;;18.40;6.63;;;;;;;;;;5083848;28;20317;-71
2022/03/10 04:04:43;;;;;;;14.97;7.07;;;;;;;;;;5083436;28;20539;-71
2022/03/10 04:07:08;;;;;;;19.20;7.30;;;;;;;;;;5083871;28;20028;-71
2022/03/10 04:09:34;;;;;;;17.23;7.40;;;;;;;;;;5082417;28;20151;-71
2022/03/10 04:12:00;;;;;;;16.97;7.33;;;;;;;;;;5083721;28;20508;-71
2022/03/10 04:14:25;;;;;;;20.27;7.00;;;;;;;;;;5082876;28;20027;-71
2022/03/10 04:16:51;;;;;;;16.53;6.67;;;;;;;;;;5083342;28;20035;-71
2022/03/10 04:19:16;;;;;;;14.23;6.40;;;;;;;;;;5082526;28;20609;-71
2022/03/10 04:21:41;;;;;;;16.13;7.20;;;;;;;;;;5074034;28;20074;-71
2022/03/10 04:24:07;;;;;;;14.87;6.63;;;;;;;;;;5079409;28;20032;-71
2022/03/10 04:26:32;;;;;;;16.43;7.10;;;;;;;;;;5083713;28;20469;-71
2022/03/10 04:28:57;;;;;;;16.07;6.93;;;;;;;;;;5083191;28;20055;-71
2022/03/10 04:31:23;;;;;;;16.03;6.83;;;;;;;;;;5083993;28;20042;-71
2022/03/10 04:33:49;;;;;;;16.37;6.90;;;;;;;;;;5083528;28;20031;-71
2022/03/10 04:36:14;;;;;;;14.97;6.23;;;;;;;;;;5083226;28;20023;-71
2022/03/10 04:38:39;;;;;;;16.30;7.43;;;;;;;;;;5082678;28;20020;-71
2022/03/10 04:41:04;;;;;;;20.33;7.23;;;;;;;;;;5083061;28;20456;-71
2022/03/10 04:43:30;;;;;;;16.40;7.13;;;;;;;;;;5082921;28;20774;-71
2022/03/10 04:45:55;;;;;;;14.20;6.60;;;;;;;;;;5082426;28;20133;-71
2022/03/10 04:48:21;;;;;;;16.43;7.40;;;;;;;;;;5082030;28;20031;-71
2022/03/10 04:50:46;;;;;;;17.53;7.23;;;;;;;;;;5082172;28;20478;-71
2022/03/10 04:53:12;;;;;;;18.60;6.60;;;;;;;;;;5081515;28;20486;-71
2022/03/10 04:55:37;;;;;;;12.70;6.07;;;;;;;;;;5081918;28;20013;-71
2022/03/10 04:58:04;;;;;;;15.97;7.30;;;;;;;;;;5082127;28;20522;-71
2022/03/10 05:00:29;;;;;;;17.37;6.40;;;;;;;;;;5081581;28;20038;-71
2022/03/10 05:02:54;;;;;;;15.87;6.50;;;;;;;;;;5081947;28;20463;-71
2022/03/10 05:05:20;;;;;;;15.77;6.47;;;;;;;;;;5087028;28;20031;-71
2022/03/10 05:07:45;;;;;;;15.53;6.93;;;;;;;;;;5081916;28;20413;-71
2022/03/10 05:10:11;;;;;;;14.90;6.07;;;;;;;;;;5081598;28;20105;-71
2022/03/10 05:12:43;;;;;;;17.57;7.47;;;;;;;;;;5081824;28;20472;-71
2022/03/10 05:15:08;;;;;;;16.75;8.18;;;;;;;;;;5082095;28;20526;-71
2022/03/10 05:17:33;;;;;;;15.90;6.27;;;;;;;;;;5082163;28;20017;-71
2022/03/10 05:19:58;;;;;;;17.13;6.67;;;;;;;;;;5081711;28;20024;-71
2022/03/10 05:22:24;;;;;;;16.47;6.70;;;;;;;;;;5077912;28;20043;-71
2022/03/10 05:24:49;;;;;;;27.20;7.17;;;;;;;;;;5081584;28;20029;-71
2022/03/10 05:27:14;;;;;;;18.77;7.10;;;;;;;;;;5081814;28;20681;-72
2022/03/10 05:29:40;;;;;;;17.60;7.50;;;;;;;;;;5081386;28;20032;-71
2022/03/10 05:32:07;;;;;;;17.10;7.47;;;;;;;;;;5081357;28;20511;-71
2022/03/10 05:34:33;;;;;;;18.87;7.27;;;;;;;;;;5081801;28;20383;-71
2022/03/10 05:36:58;;;;;;;18.53;8.10;;;;;;;;;;5082267;28;20008;-72
2022/03/10 05:39:23;;;;;;;17.70;8.13;;;;;;;;;;5082398;28;20059;-71
2022/03/10 05:41:48;;;;;;;19.67;8.43;;;;;;;;;;5082260;28;20016;-71
2022/03/10 05:44:14;;;;;;;18.63;7.60;;;;;;;;;;5080616;28;20028;-71
2022/03/10 05:46:39;;;;;;;15.43;8.03;;;;;;;;;;5081302;28;20028;-71
2022/03/10 05:49:04;;;;;;;16.03;6.80;;;;;;;;;;5081243;28;20084;-71
2022/03/10 05:51:29;;;;;;;20.80;7.77;;;;;;;;;;5081467;28;20051;-71
2022/03/10 05:53:55;;;;;;;15.90;6.70;;;;;;;;;;5081786;28;20023;-71
2022/03/10 05:56:20;;;;;;;13.90;6.67;;;;;;;;;;5081747;28;20016;-71
2022/03/10 05:58:45;;;;;;;14.70;7.03;;;;;;;;;;5081668;28;20103;-71
2022/03/10 06:01:11;;;;;;;16.03;7.17;;;;;;;;;;5080916;28;20016;-71
2022/03/10 06:03:36;;;;;;;20.97;7.63;;;;;;;;;;5084841;28;20035;-71
2022/03/10 06:06:01;;;;;;;19.63;7.60;;;;;;;;;;5094152;28;20084;-71
2022/03/10 06:08:27;;;;;;;19.60;8.13;;;;;;;;;;5086166;28;20028;-71
2022/03/10 06:10:52;;;;;;;25.27;7.40;;;;;;;;;;5094090;28;20567;-71
2022/03/10 06:13:17;;;;;;;22.47;9.00;;;;;;;;;;5085122;28;20028;-71
2022/03/10 06:15:43;;;;;;;16.77;6.87;;;;;;;;;;5099556;28;20103;-71
2022/03/10 06:18:09;;;;;;;15.77;7.10;;;;;;;;;;5089463;28;20376;-71
2022/03/10 06:20:34;;;;;;;19.97;8.57;;;;;;;;;;5093044;28;20032;-71
2022/03/10 06:22:59;;;;;;;16.57;7.27;;;;;;;;;;5083215;28;20024;-71
2022/03/10 06:25:25;;;;;;;16.27;6.97;;;;;;;;;;5084614;28;20024;-71
2022/03/10 06:27:50;;;;;;;18.43;7.10;;;;;;;;;;5085058;28;20376;-71
2022/03/10 06:30:15;;;;;;;14.83;7.37;;;;;;;;;;5084847;28;20711;-71
2022/03/10 06:32:41;;;;;;;15.23;6.93;;;;;;;;;;5085736;28;20020;-71
2022/03/10 06:35:07;;;;;;;14.13;6.27;;;;;;;;;;5092062;28;20026;-71
2022/03/10 06:37:32;;;;;;;19.47;7.53;;;;;;;;;;5093304;28;20031;-71
2022/03/10 06:39:58;;;;;;;13.77;6.53;;;;;;;;;;5083907;28;20024;-71
2022/03/10 06:42:23;;;;;;;14.00;6.87;;;;;;;;;;5094264;28;20016;-70
2022/03/10 06:44:49;;;;;;;18.37;6.40;;;;;;;;;;5101116;28;20491;-70
2022/03/10 06:47:14;;;;;;;13.30;6.53;;;;;;;;;;5103779;28;20075;-71
2022/03/10 06:49:39;;;;;;;14.10;6.97;;;;;;;;;;5100180;28;20019;-71
2022/03/10 06:52:05;;;;;;;14.80;6.20;;;;;;;;;;5098934;28;20028;-71
2022/03/10 06:54:31;;;;;;;17.63;6.93;;;;;;;;;;5091511;28;20168;-71
2022/03/10 06:56:56;;;;;;;14.57;6.77;;;;;;;;;;5084074;28;20447;-71
2022/03/10 06:59:21;;;;;;;18.93;6.30;;;;;;;;;;5084648;28;20381;-71
2022/03/10 07:01:46;;;;;;;15.37;6.00;;;;;;;;;;5084650;28;20350;-71
2022/03/10 07:04:13;;;;;;;12.70;5.73;;;;;;;;;;5085394;28;20403;-71
2022/03/10 07:06:38;;;;;;;22.20;6.93;;;;;;;;;;5095839;28;20031;-71
2022/03/10 07:09:03;;;;;;;16.03;6.53;;;;;;;;;;5084175;28;20388;-71
2022/03/10 07:11:28;;;;;;;13.33;6.20;;;;;;;;;;5085425;28;20109;-70
2022/03/10 07:13:54;;;;;;;18.27;7.13;;;;;;;;;;5085457;28;20103;-71
2022/03/10 07:16:19;;;;;;;16.37;6.83;;;;;;;;;;5083850;28;20074;-71
2022/03/10 07:18:51;;;;;;;16.43;6.20;;;;;;;;;;5084575;28;20024;-71
2022/03/10 07:21:22;;;;;;;15.43;6.43;;;;;;;;;;5079832;28;20020;-70
2022/03/10 07:23:48;;;;;;;13.55;5.97;;;;;;;;;;5083411;28;20572;-70
2022/03/10 07:26:13;;;;;;;17.47;6.37;;;;;;;;;;5085211;28;20043;-70
2022/03/10 07:28:39;;;;;;;16.57;7.13;;;;;;;;;;5085454;28;20031;-70
2022/03/10 07:31:04;;;;;;;13.37;6.53;;;;;;;;;;5085120;28;20027;-70
2022/03/10 07:33:29;;;;;;;13.50;6.23;;;;;;;;;;5083594;28;20187;-70
2022/03/10 07:35:55;;;;;;;14.47;6.57;;;;;;;;;;5083474;28;20043;-70
2022/03/10 07:38:20;;;;;;;14.90;6.10;;;;;;;;;;5083471;28;20095;-70
2022/03/10 07:40:46;;;;;;;15.60;6.67;;;;;;;;;;5083945;28;20016;-71
2022/03/10 07:43:11;;;;;;;12.30;5.37;;;;;;;;;;5084028;28;20821;-70
2022/03/10 07:45:36;;;;;;;11.77;6.00;;;;;;;;;;5079660;28;20028;-70
2022/03/10 07:48:02;;;;;;;12.83;5.63;;;;;;;;;;5076466;28;20153;-70
2022/03/10 07:50:27;;;;;;;13.73;6.03;;;;;;;;;;5085720;28;20492;-70
2022/03/10 07:52:52;;;;;;;13.13;5.70;;;;;;;;;;5085495;28;20049;-70
2022/03/10 07:55:18;;;;;;;12.67;5.60;;;;;;;;;;5084563;28;20034;-71
2022/03/10 07:57:43;;;;;;;12.57;5.80;;;;;;;;;;5074343;28;20012;-71
2022/03/10 08:00:09;;;;;;;12.23;5.60;;;;;;;;;;5083131;28;20029;-71
2022/03/10 08:02:34;;;;;;;12.13;5.93;;;;;;;;;;5085118;28;20012;-71
2022/03/10 08:05:00;;;;;;;11.73;6.53;;;;;;;;;;5085845;28;20018;-71
2022/03/10 08:07:25;;;;;;;19.27;7.47;;;;;;;;;;5086045;28;20026;-71
2022/03/10 08:09:50;;;;;;;12.07;5.23;;;;;;;;;;5085126;28;20046;-71
2022/03/10 08:12:15;;;;;;;12.87;6.10;;;;;;;;;;5086226;28;20460;-70
2022/03/10 08:14:41;;;;;;;16.03;5.70;;;;;;;;;;5084864;28;20449;-70
2022/03/10 08:17:07;;;;;;;11.00;5.30;;;;;;;;;;5084802;28;20030;-70
2022/03/10 08:19:32;;;;;;;13.40;5.77;;;;;;;;;;5084218;28;20032;-70
2022/03/10 08:21:58;;;;;;;17.37;6.37;;;;;;;;;;5083704;28;20472;-70
2022/03/10 08:24:23;;;;;;;13.38;5.80;;;;;;;;;;5083519;28;20091;-71
2022/03/10 08:26:48;;;;;;;13.32;5.30;;;;;;;;;;5082118;28;20526;-71
2022/03/10 08:29:14;;;;;;;10.73;5.72;;;;;;;;;;5082623;28;20024;-71
2022/03/10 08:31:39;;;;;;;13.13;5.20;;;;;;;;;;5082318;28;20024;-71
2022/03/10 08:34:04;;;;;;;12.65;5.88;;;;;;;;;;5082354;28;20043;-71
2022/03/10 08:36:30;;;;;;;10.95;5.60;;;;;;;;;;5082447;28;20051;-71
2022/03/10 08:38:56;;;;;;;10.20;5.10;;;;;;;;;;5082267;28;20016;-71
2022/03/10 08:41:21;;;;;;;9.05;4.82;;;;;;;;;;5082257;28;20030;-71
2022/03/10 08:43:46;;;;;;;10.10;5.07;;;;;;;;;;5081938;28;20016;-71
2022/03/10 08:46:12;;;;;;;10.50;4.65;;;;;;;;;;5083473;28;20024;-71
2022/03/10 08:48:39;;;;;;;11.52;5.15;;;;;;;;;;5082379;28;20043;-71
2022/03/10 08:51:04;;;;;;;9.27;4.68;;;;;;;;;;5082460;28;20104;-71
2022/03/10 08:53:30;;;;;;;9.90;4.60;;;;;;;;;;5081823;28;20630;-74
2022/03/10 08:55:56;;;;;;;12.38;5.65;;;;;;;;;;5082384;28;20553;-74
2022/03/10 08:58:21;;;;;;;8.95;4.90;;;;;;;;;;5081953;28;20016;-74
2022/03/10 09:00:46;;;;;;;9.38;4.78;;;;;;;;;;5063460;28;20016;-75
2022/03/10 09:03:12;;;;;;;9.50;5.03;;;;;;;;;;5081516;28;20531;-74
2022/03/10 09:05:37;;;;;;;10.45;5.22;;;;;;;;;;5082042;28;20020;-74
2022/03/10 09:08:03;;;;;;;9.25;4.90;;;;;;;;;;5082713;28;20024;-74
2022/03/10 09:10:29;;;;;;;9.73;5.35;;;;;;;;;;5081855;28;20638;-74
2022/03/10 09:12:54;;;;;;;11.27;5.10;;;;;;;;;;5085231;28;20077;-74
2022/03/10 09:15:26;;;;;;;12.35;5.18;;;;;;;;;;5085841;28;20520;-74
2022/03/10 09:17:51;;;;;;;11.38;5.50;;;;;;;;;;5087744;28;20056;-74
2022/03/10 09:20:17;;;;;;;12.52;5.60;;;;;;;;;;5087656;28;20487;-74
2022/03/10 09:22:42;;;;;;;10.77;5.18;;;;;;;;;;5086530;28;20089;-74
2022/03/10 09:25:08;;;;;;;10.52;5.05;;;;;;;;;;5087410;28;20028;-75
2022/03/10 09:27:36;;;;;;;13.18;5.65;;;;;;;;;;5085802;28;20551;-75
2022/03/10 09:30:03;;;;;;;11.00;5.13;;;;;;;;;;5087037;28;20040;-74
2022/03/10 09:32:33;;;;;;;13.43;5.88;;;;;;;;;;5085535;28;20130;-74
2022/03/10 09:34:58;;;;;;;10.50;5.17;;;;;;;;;;5087131;28;20032;-74
2022/03/10 09:37:23;;;;;;;11.43;5.07;;;;;;;;;;5087418;28;20093;-74
2022/03/10 09:39:49;;;;;;;12.90;5.50;;;;;;;;;;5086825;28;20111;-74
2022/03/10 09:42:15;;;;;;;12.57;5.43;;;;;;;;;;5085111;28;20032;-74
2022/03/10 09:44:43;;;;;;;11.37;5.17;;;;;;;;;;5084155;28;20157;-75
2022/03/10 09:47:08;;;;;;;12.77;5.60;;;;;;;;;;5085606;28;20012;-74
2022/03/10 09:49:34;;;;;;;13.23;5.97;;;;;;;;;;5085008;28;20077;-74
2022/03/10 09:51:59;;;;;;;10.40;5.03;;;;;;;;;;5078004;28;20117;-74
2022/03/10 09:54:24;;;;;;;11.20;5.07;;;;;;;;;;5085221;28;20074;-74
2022/03/10 09:56:49;;;;;;;14.43;5.10;;;;;;;;;;5085536;28;20008;-74
2022/03/10 09:59:15;;;;;;;12.20;5.50;;;;;;;;;;5085380;28;20016;-74
2022/03/10 10:01:40;;;;;;;10.97;5.23;;;;;;;;;;5084596;28;20020;-74
2022/03/10 10:04:06;;;;;;;10.73;5.13;;;;;;;;;;5084498;28;20036;-74
2022/03/10 10:06:51;;;;;;;9.73;4.83;;;;;;;;;;5085875;28;20464;-74
2022/03/10 10:09:20;;;;;;;12.40;4.73;;;;;;;;;;5084558;28;20067;-74
2022/03/10 10:11:45;;;;;;;11.37;5.70;;;;;;;;;;5084859;28;20120;-74
2022/03/10 10:14:10;;;;;;;12.90;5.70;;;;;;;;;;5083995;28;20477;-74
2022/03/10 10:16:45;;;;;;;11.30;5.83;;;;;;;;;;5074397;28;20099;-73
2022/03/10 10:19:16;;;;;;;12.63;5.30;;;;;;;;;;5073575;28;20103;-73
2022/03/10 10:21:41;;;;;;;10.33;5.10;;;;;;;;;;5085284;28;20016;-74
2022/03/10 10:24:14;;;;;;;9.93;4.87;;;;;;;;;;5085089;28;20262;-73
2022/03/10 10:26:40;;;;;;;13.50;6.10;;;;;;;;;;5084260;28;20016;-74
2022/03/10 10:29:05;;;;;;;9.20;4.17;;;;;;;;;;5085772;28;20081;-73
2022/03/10 10:31:30;;;;;;;10.47;5.53;;;;;;;;;;5083668;28;20019;-74
2022/03/10 10:33:57;;;;;;;11.50;5.57;;;;;;;;;;5069724;28;20028;-74
2022/03/10 10:36:26;;;;;;;9.77;5.23;;;;;;;;;;5085680;28;20077;-73
2022/03/10 10:39:05;;;;;;;10.53;5.53;;;;;;;;;;5083282;28;20020;-74
2022/03/10 10:41:31;;;;;;;11.47;5.57;;;;;;;;;;5085276;28;20020;-74
2022/03/10 10:43:58;;;;;;;11.63;5.03;;;;;;;;;;5085241;28;20426;-73
2022/03/10 10:46:46;;;;;;;10.47;5.10;;;;;;;;;;5086179;28;20085;-73
2022/03/10 10:49:15;;;;;;;9.10;4.70;;;;;;;;;;5020754;28;20101;-74
2022/03/10 10:51:40;;;;;;;11.40;5.17;;;;;;;;;;5023283;28;20033;-74
2022/03/10 10:54:07;;;;;;;11.27;5.17;;;;;;;;;;5022881;28;20813;-74
2022/03/10 10:56:34;;;;;;;8.63;4.57;;;;;;;;;;5024340;28;20068;-73
2022/03/10 10:59:01;;;;;;;15.27;6.50;;;;;;;;;;5023346;28;20041;-74
2022/03/10 11:01:30;;;;;;;11.30;4.83;;;;;;;;;;5024988;28;20088;-73
2022/03/10 11:03:55;;;;;;;13.60;5.80;;;;;;;;;;5008928;28;20021;-73
2022/03/10 11:06:20;;;;;;;11.20;4.60;;;;;;;;;;5024437;28;20076;-74
2022/03/10 11:08:46;;;;;;;9.70;4.67;;;;;;;;;;5022649;28;20029;-75
2022/03/10 11:11:11;;;;;;;9.57;4.93;;;;;;;;;;5025409;28;20049;-74
2022/03/10 11:13:36;;;;;;;9.03;4.87;;;;;;;;;;5027351;28;20030;-74
2022/03/10 11:16:02;;;;;;;12.50;5.27;;;;;;;;;;5025492;28;20152;-74
2022/03/10 11:18:27;;;;;;;11.73;4.90;;;;;;;;;;5025256;28;20579;-74
2022/03/10 11:20:59;;;;;;;11.00;4.77;;;;;;;;;;5023724;28;20033;-74
2022/03/10 11:23:43;;;;;;;11.02;4.90;;;;;;;;;;5025582;28;20029;-74
2022/03/10 11:26:14;;;;;;;11.80;5.30;;;;;;;;;;5042146;28;20020;-73
2022/03/10 11:28:44;;;;;;;11.50;5.00;;;;;;;;;;5088804;28;20020;-74
2022/03/10 11:31:11;;;;;;;8.37;4.10;;;;;;;;;;5086578;28;20024;-74
2022/03/10 11:33:38;;;;;;;11.10;4.77;;;;;;;;;;5078448;28;20039;-74
2022/03/10 11:36:23;;;;;;;9.67;4.47;;;;;;;;;;5087378;28;20016;-74
2022/03/10 11:38:58;;;;;;;9.67;4.43;;;;;;;;;;5089628;28;20020;-74
2022/03/10 11:41:27;;;;;;;8.67;3.93;;;;;;;;;;5079593;28;20055;-74
2022/03/10 11:43:59;;;;;;;10.87;4.53;;;;;;;;;;5090315;28;20058;-74
2022/03/10 11:46:31;;;;;;;16.53;5.03;;;;;;;;;;5088312;28;20050;-74
2022/03/10 11:48:56;;;;;;;;;;;;;;;;;;5088626;28;20082;-74
2022/03/10 11:51:38;;;;;;;8.82;4.68;;;;;;;;;;5089167;28;19904;-74
2022/03/10 11:54:03;;;;;;;;;;;;;;;;;;5088726;28;20043;-74
2022/03/10 11:56:52;;;;;;;9.37;4.33;;;;;;;;;;5088560;28;20328;-74
2022/03/10 11:59:18;;;;;;;9.17;4.20;;;;;;;;;;5070759;28;20039;-74
2022/03/10 12:01:43;;;;;;;9.03;4.70;;;;;;;;;;5087453;28;20009;-74
2022/03/10 12:04:13;;;;;;;8.33;4.17;;;;;;;;;;5087622;28;20063;-74
2022/03/10 12:06:46;;;;;;;12.33;4.03;;;;;;;;;;5087443;28;20048;-74
2022/03/10 12:09:23;;;;;;;8.63;3.97;;;;;;;;;;5088266;28;20040;-74
2022/03/10 12:11:51;;;;;;;8.37;4.23;;;;;;;;;;5068235;28;20535;-75
2022/03/10 12:14:24;;;;;;;8.90;4.23;;;;;;;;;;5082231;28;20030;-74
2022/03/10 12:16:49;;;;;;;9.07;4.17;;;;;;;;;;5089767;28;20012;-74
2022/03/10 12:19:15;;;;;;;9.77;4.40;;;;;;;;;;5089574;28;20031;-74
2022/03/10 12:21:40;;;;;;;9.17;4.07;;;;;;;;;;5087968;28;20020;-74
2022/03/10 12:24:05;;;;;;;10.17;4.90;;;;;;;;;;5088107;28;20035;-74
2022/03/10 12:26:31;;;;;;;9.10;4.10;;;;;;;;;;5087591;28;20027;-74
2022/03/10 12:28:57;;;;;;;11.53;4.93;;;;;;;;;;5084357;28;20028;-75
2022/03/10 12:31:23;;;;;;;9.00;4.80;;;;;;;;;;5087850;28;20028;-75
2022/03/10 12:33:50;;;;;;;7.80;3.77;;;;;;;;;;5086775;28;20024;-74
2022/03/10 12:36:28;;;;;;;11.37;4.70;;;;;;;;;;5087930;28;20020;-75
2022/03/10 12:38:54;;;;;;;8.10;4.27;;;;;;;;;;5087480;28;20016;-75
2022/03/10 12:41:20;;;;;;;8.93;3.90;;;;;;;;;;5088094;28;20012;-74
2022/03/10 12:43:53;;;;;;;9.57;4.57;;;;;;;;;;5087087;28;20475;-74
2022/03/10 12:46:18;;;;;;;9.23;4.53;;;;;;;;;;5070030;28;20020;-72
2022/03/10 12:49:01;;;;;;;7.18;3.55;;;;;;;;;;5085312;28;20365;-71
2022/03/10 12:51:28;;;;;;;8.48;3.83;;;;;;;;;;5081320;28;20492;-71
2022/03/10 12:53:54;;;;;;;8.50;4.03;;;;;;;;;;5085893;28;20024;-71
2022/03/10 12:56:19;;;;;;;10.02;4.15;;;;;;;;;;5079051;28;20469;-70
2022/03/10 12:58:48;;;;;;;11.70;3.47;;;;;;;;;;5079376;28;20665;-71
2022/03/10 13:01:13;;;;;;;9.52;4.30;;;;;;;;;;5085191;28;20023;-71
2022/03/10 13:03:47;;;;;;;9.88;4.22;;;;;;;;;;5082495;28;20076;-70
2022/03/10 13:06:12;;;;;;;10.35;4.28;;;;;;;;;;5085748;28;20106;-70
2022/03/10 13:08:40;;;;;;;9.52;4.00;;;;;;;;;;5085261;28;20067;-69
2022/03/10 13:11:06;;;;;;;8.73;3.97;;;;;;;;;;5085395;28;20071;-69
2022/03/10 13:13:31;;;;;;;15.55;4.75;;;;;;;;;;5083514;28;20047;-69
2022/03/10 13:16:01;;;;;;;8.80;4.25;;;;;;;;;;5084831;28;20020;-69
2022/03/10 13:18:26;;;;;;;8.75;4.03;;;;;;;;;;5084664;28;20533;-69
2022/03/10 13:20:51;;;;;;;11.00;4.60;;;;;;;;;;5085037;28;20115;-69
2022/03/10 13:23:23;;;;;;;9.98;4.45;;;;;;;;;;5078439;28;20060;-69
2022/03/10 13:25:49;;;;;;;8.85;3.90;;;;;;;;;;5084528;28;20031;-69
2022/03/10 13:28:15;;;;;;;8.48;4.15;;;;;;;;;;5085419;28;20067;-69
2022/03/10 13:30:42;;;;;;;7.82;3.92;;;;;;;;;;5084471;28;20032;-69
2022/03/10 13:33:10;;;;;;;8.23;3.60;;;;;;;;;;5085023;28;20020;-69
2022/03/10 13:35:39;;;;;;;8.70;3.88;;;;;;;;;;5083853;28;20472;-69
2022/03/10 13:38:05;;;;;;;8.90;4.15;;;;;;;;;;5071004;28;20165;-69
2022/03/10 13:40:32;;;;;;;8.73;3.90;;;;;;;;;;5083376;28;20020;-69
2022/03/10 13:42:58;;;;;;;6.90;3.28;;;;;;;;;;5083652;28;20099;-69
2022/03/10 13:45:24;;;;;;;7.60;4.10;;;;;;;;;;5084570;28;20119;-70
2022/03/10 13:47:56;;;;;;;7.68;3.88;;;;;;;;;;5084887;28;20366;-69
2022/03/10 13:50:23;;;;;;;9.52;4.30;;;;;;;;;;5083942;28;20028;-70
2022/03/10 13:52:53;;;;;;;8.95;4.20;;;;;;;;;;5083753;28;20057;-70
2022/03/10 13:55:24;;;;;;;7.43;3.63;;;;;;;;;;5084550;28;20024;-70
2022/03/10 13:57:49;;;;;;;7.07;3.35;;;;;;;;;;5084156;28;20027;-70
2022/03/10 14:00:14;;;;;;;8.40;3.38;;;;;;;;;;5083199;28;20024;-69
2022/03/10 14:02:47;;;;;;;8.02;4.10;;;;;;;;;;5084378;28;20134;-70
2022/03/10 14:05:13;;;;;;;7.55;3.45;;;;;;;;;;5084368;28;20069;-70
2022/03/10 14:07:38;;;;;;;7.07;3.47;;;;;;;;;;5085580;28;20107;-69
2022/03/10 14:10:04;;;;;;;8.30;3.13;;;;;;;;;;5084019;28;20120;-70
2022/03/10 14:12:30;;;;;;;7.07;3.53;;;;;;;;;;5083529;28;20023;-70
2022/03/10 14:14:55;;;;;;;10.73;4.10;;;;;;;;;;5083964;28;20036;-69
2022/03/10 14:17:20;;;;;;;7.55;3.80;;;;;;;;;;5084183;28;20377;-69
2022/03/10 14:19:46;;;;;;;7.25;3.58;;;;;;;;;;5084449;28;20027;-69
2022/03/10 14:22:16;;;;;;;7.45;3.38;;;;;;;;;;5084787;28;20020;-69
2022/03/10 14:24:41;;;;;;;10.00;4.43;;;;;;;;;;5085020;28;20024;-69
2022/03/10 14:27:08;;;;;;;7.68;3.58;;;;;;;;;;5088924;28;20376;-69
2022/03/10 14:29:40;;;;;;;8.73;3.90;;;;;;;;;;5083370;28;20024;-70
2022/03/10 14:32:06;;;;;;;7.47;3.72;;;;;;;;;;5088064;28;20020;-70
2022/03/10 14:34:32;;;;;;;7.03;3.38;;;;;;;;;;5087926;28;20115;-70